Time;durP1;ratioP1;P1;durP2;ratioP2;P2;SDS_P1;SDS_P2;PMS_P1;PMS_P2;Temp;Humidity;BMP_temperature;BMP_pressure;BME280_temperature;BME280_humidity;BME280_pressure;Samples;Min_cycle;Max_cycle;Signal;HPM_P1;HPM_P2
2021/11/19 00:00:20;;;;;;;8.32;7.88;;;8.20;76.60;;;;;;5015899;28;20033;-77
2021/11/19 00:02:46;;;;;;;8.20;7.72;;;8.20;76.50;;;;;;5032150;28;20402;-78
2021/11/19 00:05:12;;;;;;;8.15;7.75;;;8.20;76.60;;;;;;5044279;28;20033;-77
2021/11/19 00:07:38;;;;;;;8.52;8.13;;;8.20;76.60;;;;;;5046575;28;20037;-77
2021/11/19 00:10:05;;;;;;;8.65;8.20;;;8.20;76.70;;;;;;5038493;28;20036;-78
2021/11/19 00:12:34;;;;;;;9.38;8.93;;;8.10;76.80;;;;;;5047064;28;20536;-77
2021/11/19 00:15:00;;;;;;;8.65;8.13;;;8.00;76.90;;;;;;5050288;28;20041;-77
2021/11/19 00:17:26;;;;;;;8.30;7.90;;;8.00;77.00;;;;;;5047255;28;20033;-78
2021/11/19 00:19:52;;;;;;;7.65;7.25;;;8.00;77.00;;;;;;5045679;28;20415;-77
2021/11/19 00:22:19;;;;;;;8.15;7.68;;;8.00;77.00;;;;;;5048197;28;20040;-77
2021/11/19 00:24:45;;;;;;;7.53;7.13;;;8.00;77.00;;;;;;5031230;28;20425;-77
2021/11/19 00:27:14;;;;;;;8.02;7.63;;;8.00;77.10;;;;;;5038449;28;20045;-78
2021/11/19 00:29:40;;;;;;;7.90;7.40;;;8.00;77.10;;;;;;5051979;28;20034;-78
2021/11/19 00:32:10;;;;;;;7.22;6.93;;;7.90;77.10;;;;;;5029067;28;20042;-77
2021/11/19 00:34:38;;;;;;;7.80;7.40;;;8.00;77.10;;;;;;5041148;28;20045;-77
2021/11/19 00:37:07;;;;;;;8.02;7.53;;;8.00;77.00;;;;;;5066066;28;20064;-77
2021/11/19 00:39:33;;;;;;;8.60;7.88;;;8.00;77.00;;;;;;5050652;28;20413;-77
2021/11/19 00:42:00;;;;;;;8.35;7.95;;;7.90;77.10;;;;;;5045440;28;20025;-77
2021/11/19 00:44:26;;;;;;;9.03;8.53;;;7.90;77.20;;;;;;5042435;28;20020;-77
2021/11/19 00:46:53;;;;;;;9.07;8.48;;;7.90;77.30;;;;;;5048807;28;20033;-77
2021/11/19 00:49:21;;;;;;;7.70;7.20;;;7.90;77.40;;;;;;5047826;28;20029;-77
2021/11/19 00:51:50;;;;;;;7.60;7.22;;;7.90;77.40;;;;;;5048709;28;20048;-78
2021/11/19 00:54:17;;;;;;;7.95;7.50;;;7.90;77.40;;;;;;5016084;28;20500;-77
2021/11/19 00:56:46;;;;;;;8.53;7.97;;;7.90;77.30;;;;;;5036021;28;20040;-77
2021/11/19 00:59:13;;;;;;;8.63;8.20;;;8.00;77.40;;;;;;5039408;28;20389;-78
2021/11/19 01:01:51;;;;;;;8.33;7.80;;;7.90;77.40;;;;;;5042162;28;20030;-78
2021/11/19 01:04:17;;;;;;;8.38;7.85;;;7.90;77.40;;;;;;5018769;28;20028;-77
2021/11/19 01:06:43;;;;;;;8.00;7.60;;;7.90;77.50;;;;;;5026218;28;20494;-78
2021/11/19 01:09:13;;;;;;;8.57;8.07;;;7.90;77.50;;;;;;5045737;28;20055;-77
2021/11/19 01:11:40;;;;;;;7.47;7.18;;;7.80;77.50;;;;;;5037984;28;20044;-77
2021/11/19 01:14:08;;;;;;;9.03;8.43;;;7.80;77.70;;;;;;5042681;28;20044;-77
2021/11/19 01:16:47;;;;;;;7.80;7.40;;;7.70;77.80;;;;;;5033584;28;20404;-77
2021/11/19 01:19:18;;;;;;;7.07;6.77;;;7.70;77.90;;;;;;5052490;28;20046;-77
2021/11/19 01:21:55;;;;;;;6.80;6.50;;;7.70;77.90;;;;;;5024623;28;20390;-77
2021/11/19 01:24:21;;;;;;;7.27;6.97;;;7.70;77.70;;;;;;5046516;28;20049;-78
2021/11/19 01:26:47;;;;;;;6.97;6.68;;;7.70;77.70;;;;;;5037351;28;20029;-78
2021/11/19 01:29:15;;;;;;;7.43;7.03;;;7.70;77.70;;;;;;5037872;28;20033;-78
2021/11/19 01:31:45;;;;;;;8.50;8.02;;;7.70;77.80;;;;;;5042765;28;20410;-78
2021/11/19 01:34:12;;;;;;;7.78;7.38;;;7.70;77.80;;;;;;5034004;28;20390;-77
2021/11/19 01:36:38;;;;;;;7.85;7.15;;;7.70;77.90;;;;;;5047102;28;20053;-77
2021/11/19 01:39:05;;;;;;;7.88;7.47;;;7.70;77.90;;;;;;5034491;28;20040;-77
2021/11/19 01:41:36;;;;;;;7.60;7.20;;;7.70;77.90;;;;;;5035056;28;20044;-78
2021/11/19 01:44:10;;;;;;;7.68;7.22;;;7.70;77.90;;;;;;5040070;28;20394;-77
2021/11/19 01:46:36;;;;;;;8.57;8.07;;;7.70;78.00;;;;;;5048526;28;20036;-77
2021/11/19 01:49:02;;;;;;;6.72;6.43;;;7.70;77.90;;;;;;5060911;28;20048;-77
2021/11/19 01:51:43;;;;;;;8.07;7.57;;;7.70;77.90;;;;;;5046401;28;20021;-78
2021/11/19 01:54:20;;;;;;;6.90;6.60;;;7.70;77.80;;;;;;5019708;28;20052;-77
2021/11/19 01:57:14;;;;;;;7.30;7.00;;;7.70;77.90;;;;;;5017565;28;20040;-78
2021/11/19 01:59:44;;;;;;;7.80;7.40;;;7.70;78.00;;;;;;4987658;28;20042;-77
2021/11/19 02:02:13;;;;;;;7.15;6.75;;;7.70;78.00;;;;;;4961344;28;20034;-77
2021/11/19 02:04:44;;;;;;;8.93;8.05;;;7.70;78.00;;;;;;4993573;28;20049;-77
2021/11/19 02:07:17;;;;;;;7.75;7.35;;;7.70;78.00;;;;;;4999688;28;20370;-77
2021/11/19 02:10:10;;;;;;;7.90;7.40;;;7.70;78.00;;;;;;4990299;28;20034;-78
2021/11/19 02:12:50;;;;;;;7.22;6.93;;;7.70;77.90;;;;;;5008569;28;20034;-77
2021/11/19 02:15:21;;;;;;;6.45;6.15;;;7.80;78.00;;;;;;5002201;28;20042;-77
2021/11/19 02:17:54;;;;;;;;;;;7.80;77.90;;;;;;5010765;28;20034;-77
2021/11/19 02:20:31;;;;;;;9.38;8.88;;;7.80;77.80;;;;;;5005676;28;19910;-77
2021/11/19 02:23:01;;;;;;;7.55;7.20;;;7.80;77.80;;;;;;4982024;28;20045;-77
2021/11/19 02:25:37;;;;;;;6.78;6.47;;;7.70;77.90;;;;;;5010027;28;20038;-77
2021/11/19 02:28:07;;;;;;;7.70;7.20;;;7.60;77.90;;;;;;4994229;28;20034;-77
2021/11/19 02:30:45;;;;;;;7.30;7.00;;;7.60;78.00;;;;;;4996789;28;20041;-77
2021/11/19 02:33:11;;;;;;;7.15;6.85;;;7.60;78.10;;;;;;4996971;28;20043;-77
2021/11/19 02:35:49;;;;;;;8.02;7.47;;;7.70;78.10;;;;;;5001828;28;20058;-77
2021/11/19 02:38:15;;;;;;;6.80;6.50;;;7.70;78.10;;;;;;5046007;28;20032;-78
2021/11/19 02:40:42;;;;;;;7.45;7.05;;;7.60;78.00;;;;;;5046418;28;20036;-78
2021/11/19 02:43:17;;;;;;;6.63;6.32;;;7.60;78.80;;;;;;5030872;28;20068;-77
2021/11/19 02:45:46;;;;;;;7.80;7.40;;;7.60;78.00;;;;;;5049556;28;20029;-78
2021/11/19 02:48:15;;;;;;;7.00;6.63;;;7.60;78.10;;;;;;5033032;28;20045;-78
2021/11/19 02:50:42;;;;;;;7.20;6.88;;;7.70;78.10;;;;;;5038856;28;20512;-77
2021/11/19 02:53:08;;;;;;;7.43;7.07;;;7.70;78.10;;;;;;5038297;28;20033;-77
2021/11/19 02:55:37;;;;;;;7.22;6.93;;;7.70;78.00;;;;;;5033274;28;20034;-77
2021/11/19 02:58:04;;;;;;;6.80;6.50;;;7.70;78.00;;;;;;5046210;28;22448;-78
2021/11/19 03:00:36;;;;;;;7.68;7.28;;;7.60;78.10;;;;;;5036954;28;20033;-78
2021/11/19 03:03:02;;;;;;;7.05;6.65;;;7.70;78.30;;;;;;5042398;28;20085;-77
2021/11/19 03:05:28;;;;;;;7.22;6.93;;;7.70;78.30;;;;;;5043364;28;20454;-77
2021/11/19 03:07:55;;;;;;;7.15;6.85;;;7.70;78.20;;;;;;5042576;28;20039;-77
2021/11/19 03:10:25;;;;;;;7.40;7.00;;;7.70;78.20;;;;;;5046921;28;20036;-77
2021/11/19 03:12:52;;;;;;;6.53;6.22;;;7.70;78.30;;;;;;5032554;28;20021;-77
2021/11/19 03:15:21;;;;;;;7.13;6.83;;;7.60;78.10;;;;;;5045296;28;20048;-78
2021/11/19 03:17:47;;;;;;;8.10;6.97;;;7.60;78.30;;;;;;5032579;28;20036;-77
2021/11/19 03:20:15;;;;;;;7.35;6.90;;;7.60;78.30;;;;;;5044943;28;20398;-78
2021/11/19 03:22:41;;;;;;;6.97;6.63;;;7.60;79.20;;;;;;5049451;28;20036;-77
2021/11/19 03:25:08;;;;;;;7.65;7.25;;;7.50;78.30;;;;;;5043550;28;20728;-77
2021/11/19 03:27:34;;;;;;;7.28;6.88;;;7.50;78.40;;;;;;5034612;28;20041;-77
2021/11/19 03:30:01;;;;;;;7.60;7.10;;;7.40;78.50;;;;;;5045717;28;20025;-77
2021/11/19 03:32:28;;;;;;;7.47;6.88;;;7.40;78.60;;;;;;5031199;28;20041;-77
2021/11/19 03:34:54;;;;;;;7.13;6.77;;;7.30;78.60;;;;;;5032267;28;20047;-77
2021/11/19 03:37:20;;;;;;;6.87;6.57;;;7.30;78.70;;;;;;5047270;28;20429;-77
2021/11/19 03:39:47;;;;;;;7.03;6.73;;;7.30;78.60;;;;;;5052279;28;20048;-78
2021/11/19 03:42:13;;;;;;;7.45;7.05;;;7.30;78.60;;;;;;5044532;28;20040;-77
2021/11/19 03:44:53;;;;;;;6.78;6.47;;;7.20;78.60;;;;;;5038935;28;20063;-78
2021/11/19 03:47:29;;;;;;;8.20;7.78;;;7.20;78.60;;;;;;5042815;28;20104;-77
2021/11/19 03:49:55;;;;;;;7.57;7.17;;;7.20;78.70;;;;;;5029990;28;20032;-77
2021/11/19 03:52:28;;;;;;;7.00;6.68;;;7.10;78.70;;;;;;5050524;28;20048;-77
2021/11/19 03:54:56;;;;;;;6.50;6.20;;;7.10;78.80;;;;;;5045869;28;20048;-77
2021/11/19 03:57:23;;;;;;;6.60;6.30;;;7.10;79.00;;;;;;5049142;28;20029;-77
2021/11/19 03:59:49;;;;;;;7.20;6.80;;;7.00;78.90;;;;;;5044411;28;20037;-77
2021/11/19 04:02:16;;;;;;;7.60;7.20;;;7.00;79.00;;;;;;5041956;28;20039;-78
2021/11/19 04:04:42;;;;;;;6.37;6.07;;;7.00;79.10;;;;;;5046191;28;20048;-77
2021/11/19 04:07:10;;;;;;;7.82;7.32;;;7.00;79.10;;;;;;5031579;28;20037;-76
2021/11/19 04:09:36;;;;;;;6.67;6.37;;;7.00;79.00;;;;;;5050724;28;20045;-77
2021/11/19 04:12:03;;;;;;;7.95;7.35;;;7.00;78.90;;;;;;5049936;28;20036;-77
2021/11/19 04:14:29;;;;;;;6.75;6.43;;;6.90;78.90;;;;;;5029473;28;20405;-77
2021/11/19 04:16:56;;;;;;;6.60;6.30;;;6.90;79.00;;;;;;5043169;28;20113;-77
2021/11/19 04:19:23;;;;;;;7.53;7.17;;;6.90;79.10;;;;;;5048745;28;20481;-77
2021/11/19 04:21:50;;;;;;;6.60;6.30;;;6.90;79.20;;;;;;5041183;28;20390;-77
2021/11/19 04:24:21;;;;;;;7.33;6.90;;;6.90;79.00;;;;;;5037310;28;20068;-77
2021/11/19 04:26:47;;;;;;;6.97;6.68;;;6.80;79.00;;;;;;5036871;28;20444;-77
2021/11/19 04:29:13;;;;;;;6.87;6.50;;;6.80;79.00;;;;;;5046203;28;20040;-77
2021/11/19 04:31:40;;;;;;;6.57;6.27;;;6.80;79.10;;;;;;5032175;28;20498;-77
2021/11/19 04:34:07;;;;;;;6.65;6.35;;;6.80;79.00;;;;;;5048190;28;20048;-77
2021/11/19 04:36:33;;;;;;;6.53;6.20;;;6.80;79.10;;;;;;5040573;28;20060;-77
2021/11/19 04:38:59;;;;;;;6.80;6.40;;;6.70;79.00;;;;;;5050171;28;20063;-77
2021/11/19 04:41:26;;;;;;;8.67;6.37;;;6.70;79.30;;;;;;5047309;28;20036;-77
2021/11/19 04:43:52;;;;;;;6.40;6.10;;;6.60;79.30;;;;;;5029952;28;20033;-77
2021/11/19 04:46:18;;;;;;;6.90;6.60;;;6.50;79.40;;;;;;5047466;28;20037;-77
2021/11/19 04:48:44;;;;;;;6.80;6.50;;;6.50;79.50;;;;;;5029597;28;20032;-77
2021/11/19 04:51:13;;;;;;;6.33;6.03;;;6.40;79.50;;;;;;5045760;28;20037;-77
2021/11/19 04:53:39;;;;;;;6.20;5.90;;;6.40;79.60;;;;;;5041947;28;20359;-76
2021/11/19 04:56:06;;;;;;;5.97;5.67;;;6.40;79.60;;;;;;5036923;28;20025;-77
2021/11/19 04:58:32;;;;;;;6.27;5.97;;;6.30;79.50;;;;;;5049208;28;20048;-77
2021/11/19 05:01:11;;;;;;;7.27;6.60;;;6.30;79.60;;;;;;5042701;28;20041;-77
2021/11/19 05:03:37;;;;;;;6.67;6.27;;;6.20;79.70;;;;;;5047217;28;20040;-77
2021/11/19 05:06:03;;;;;;;7.20;6.80;;;6.20;79.70;;;;;;5049418;28;20021;-77
2021/11/19 05:08:29;;;;;;;6.97;6.67;;;6.20;79.90;;;;;;5049514;28;20021;-77
2021/11/19 05:10:57;;;;;;;6.87;6.57;;;6.20;79.90;;;;;;5050425;28;20039;-77
2021/11/19 05:13:27;;;;;;;6.53;6.23;;;6.20;79.70;;;;;;5048829;28;20389;-77
2021/11/19 05:15:54;;;;;;;6.65;6.25;;;6.20;79.70;;;;;;5048093;28;20041;-77
2021/11/19 05:18:21;;;;;;;7.37;6.87;;;6.30;79.80;;;;;;5049687;28;20036;-77
2021/11/19 05:20:47;;;;;;;7.10;6.80;;;6.30;79.60;;;;;;5048641;28;20033;-77
2021/11/19 05:23:13;;;;;;;6.97;6.67;;;6.20;79.60;;;;;;5048494;28;20025;-77
2021/11/19 05:25:43;;;;;;;6.33;6.03;;;6.20;79.70;;;;;;5049311;28;20032;-77
2021/11/19 05:28:12;;;;;;;6.28;5.97;;;6.10;79.70;;;;;;5036590;28;20493;-77
2021/11/19 05:30:38;;;;;;;6.80;6.50;;;6.10;79.90;;;;;;5045502;28;20032;-77
2021/11/19 05:33:04;;;;;;;6.50;6.20;;;6.00;79.90;;;;;;5049250;28;20194;-77
2021/11/19 05:35:31;;;;;;;6.47;6.17;;;5.90;79.90;;;;;;5048196;28;20057;-77
2021/11/19 05:37:57;;;;;;;6.80;6.50;;;6.00;80.00;;;;;;5049289;28;20036;-77
2021/11/19 05:40:24;;;;;;;6.90;6.60;;;6.00;80.00;;;;;;5053028;28;20474;-77
2021/11/19 05:42:50;;;;;;;6.70;6.40;;;5.90;79.90;;;;;;5051736;28;20501;-77
2021/11/19 05:45:17;;;;;;;7.40;7.10;;;5.90;80.00;;;;;;5036091;28;20033;-77
2021/11/19 05:47:43;;;;;;;6.37;6.07;;;5.90;80.00;;;;;;5049848;28;20033;-77
2021/11/19 05:50:10;;;;;;;7.27;6.87;;;5.90;80.00;;;;;;5039597;28;20450;-77
2021/11/19 05:52:36;;;;;;;7.13;6.83;;;5.90;80.00;;;;;;5029870;28;20034;-76
2021/11/19 05:55:05;;;;;;;7.20;6.90;;;5.90;80.00;;;;;;5052132;28;20041;-77
2021/11/19 05:57:31;;;;;;;6.97;6.67;;;5.90;79.90;;;;;;5053162;28;20409;-78
2021/11/19 05:59:57;;;;;;;6.67;6.37;;;5.90;79.80;;;;;;5052763;28;20036;-78
2021/11/19 06:02:23;;;;;;;7.13;6.73;;;5.90;79.70;;;;;;5050757;28;20056;-78
2021/11/19 06:04:49;;;;;;;6.90;6.60;;;5.90;79.80;;;;;;5052731;28;20033;-79
2021/11/19 06:07:16;;;;;;;6.87;6.57;;;5.90;79.90;;;;;;5052762;28;20103;-79
2021/11/19 06:09:46;;;;;;;6.80;6.40;;;5.90;79.90;;;;;;5057754;28;20028;-79
2021/11/19 06:12:21;;;;;;;6.80;6.50;;;5.90;79.90;;;;;;5052399;28;20041;-79
2021/11/19 06:14:49;;;;;;;7.40;7.07;;;5.80;79.90;;;;;;5051676;28;20033;-79
2021/11/19 06:17:18;;;;;;;7.03;6.73;;;5.80;79.90;;;;;;5050310;28;20044;-78
2021/11/19 06:19:48;;;;;;;7.40;7.10;;;5.80;79.90;;;;;;5052446;28;20048;-78
2021/11/19 06:22:35;;;;;;;7.10;6.80;;;5.90;79.90;;;;;;5051595;28;20024;-78
2021/11/19 06:25:01;;;;;;;7.60;7.20;;;5.90;79.80;;;;;;5051103;28;20037;-79
2021/11/19 06:27:32;;;;;;;7.60;7.30;;;6.00;79.80;;;;;;5052682;28;20029;-79
2021/11/19 06:29:59;;;;;;;6.50;6.20;;;6.00;79.70;;;;;;5049288;28;20025;-80
2021/11/19 06:32:25;;;;;;;7.07;6.67;;;6.00;79.60;;;;;;5049937;28;20397;-80
2021/11/19 06:34:53;;;;;;;7.10;6.70;;;6.00;79.50;;;;;;5050932;28;20044;-78
2021/11/19 06:37:20;;;;;;;7.30;6.90;;;5.90;79.40;;;;;;5052222;28;20029;-79
2021/11/19 06:39:46;;;;;;;7.23;6.90;;;5.80;79.60;;;;;;5054231;28;20390;-79
2021/11/19 06:42:13;;;;;;;6.90;6.60;;;5.80;79.80;;;;;;5050416;28;20044;-79
2021/11/19 06:44:40;;;;;;;7.60;7.20;;;5.80;79.90;;;;;;5050886;28;20029;-79
2021/11/19 06:47:07;;;;;;;6.73;6.43;;;5.80;79.90;;;;;;5049832;28;20029;-79
2021/11/19 06:49:33;;;;;;;6.80;6.50;;;5.80;79.90;;;;;;5035085;28;20033;-79
2021/11/19 06:52:00;;;;;;;7.00;6.70;;;5.80;80.00;;;;;;5050662;28;20029;-79
2021/11/19 06:54:26;;;;;;;7.17;6.57;;;5.70;79.80;;;;;;5051786;28;20041;-79
2021/11/19 06:56:52;;;;;;;6.67;6.37;;;5.70;79.90;;;;;;5050220;28;20033;-78
2021/11/19 06:59:18;;;;;;;6.97;6.67;;;5.70;80.00;;;;;;5051607;28;20052;-79
2021/11/19 07:01:44;;;;;;;6.90;6.60;;;5.70;79.90;;;;;;5049612;28;20021;-78
2021/11/19 07:04:10;;;;;;;6.90;6.60;;;5.70;80.00;;;;;;5051525;28;20036;-78
2021/11/19 07:06:37;;;;;;;6.43;6.13;;;5.60;80.00;;;;;;5040141;28;20052;-78
2021/11/19 07:09:04;;;;;;;7.43;7.03;;;5.60;80.00;;;;;;5052195;28;20033;-78
2021/11/19 07:11:30;;;;;;;7.60;7.20;;;5.60;80.10;;;;;;5050611;28;20048;-78
2021/11/19 07:13:56;;;;;;;6.90;6.60;;;5.60;80.10;;;;;;5051008;28;20528;-78
2021/11/19 07:16:24;;;;;;;7.30;7.00;;;5.60;80.20;;;;;;5053792;28;20036;-78
2021/11/19 07:18:50;;;;;;;7.40;7.00;;;5.70;80.20;;;;;;5050341;28;20033;-79
2021/11/19 07:21:16;;;;;;;9.67;9.07;;;5.70;80.10;;;;;;5051151;28;20037;-79
2021/11/19 07:23:43;;;;;;;7.33;7.03;;;5.70;79.90;;;;;;5050226;28;20033;-79
2021/11/19 07:26:09;;;;;;;7.53;7.20;;;5.70;80.00;;;;;;5050810;28;20021;-79
2021/11/19 07:28:35;;;;;;;7.20;6.90;;;5.70;80.00;;;;;;5050209;28;20037;-79
2021/11/19 07:31:03;;;;;;;7.30;6.90;;;5.70;80.00;;;;;;5050303;28;20036;-78
2021/11/19 07:33:29;;;;;;;8.17;7.47;;;5.80;80.00;;;;;;5050949;28;20036;-79
2021/11/19 07:35:57;;;;;;;7.17;6.87;;;5.80;79.90;;;;;;5050028;28;20049;-80
2021/11/19 07:38:23;;;;;;;7.80;7.40;;;5.80;79.70;;;;;;5052437;28;20032;-79
2021/11/19 07:40:50;;;;;;;8.07;7.57;;;5.80;79.60;;;;;;5050989;28;20033;-78
2021/11/19 07:43:16;;;;;;;7.87;7.47;;;5.90;79.70;;;;;;5049264;28;20037;-79
2021/11/19 07:45:42;;;;;;;7.50;7.03;;;5.90;79.70;;;;;;5033535;28;20037;-79
2021/11/19 07:48:29;;;;;;;7.13;6.83;;;5.80;79.60;;;;;;5033704;28;20490;-80
2021/11/19 07:50:56;;;;;;;6.97;6.67;;;5.80;79.60;;;;;;5050635;28;20040;-80
2021/11/19 07:53:23;;;;;;;7.80;7.43;;;5.80;79.60;;;;;;5047380;28;20513;-79
2021/11/19 07:55:50;;;;;;;8.17;7.77;;;5.80;79.70;;;;;;5037888;28;20046;-81
2021/11/19 07:58:16;;;;;;;8.27;7.80;;;5.80;79.70;;;;;;5048385;28;20029;-81
2021/11/19 08:00:44;;;;;;;7.23;6.93;;;5.80;79.80;;;;;;5057224;28;20043;-84
2021/11/19 08:03:11;;;;;;;9.67;8.20;;;5.80;79.80;;;;;;5037587;28;20026;-82
2021/11/19 08:05:37;;;;;;;7.50;7.20;;;5.90;79.80;;;;;;5039248;28;20378;-79
2021/11/19 08:08:04;;;;;;;9.80;9.30;;;6.00;79.80;;;;;;5046009;28;20044;-79
2021/11/19 08:10:30;;;;;;;7.43;7.03;;;6.10;79.80;;;;;;5047873;28;20227;-80
2021/11/19 08:12:56;;;;;;;8.13;7.67;;;6.10;79.60;;;;;;5058909;28;20508;-79
2021/11/19 08:15:24;;;;;;;7.40;7.00;;;6.00;79.50;;;;;;5023772;28;20060;-79
2021/11/19 08:17:50;;;;;;;8.30;7.80;;;6.00;79.70;;;;;;5012814;28;20207;-79
2021/11/19 08:20:22;;;;;;;7.57;7.17;;;6.00;79.70;;;;;;5030915;28;20032;-78
2021/11/19 08:22:49;;;;;;;6.83;6.43;;;5.90;79.70;;;;;;5029500;28;20216;-78
2021/11/19 08:25:15;;;;;;;7.83;7.13;;;5.90;79.80;;;;;;5047034;28;20044;-82
2021/11/19 08:27:45;;;;;;;8.97;8.43;;;5.90;80.00;;;;;;5046566;28;20040;-80
2021/11/19 08:30:17;;;;;;;9.45;8.95;;;6.00;80.20;;;;;;5035735;28;20040;-80
2021/11/19 08:32:43;;;;;;;8.63;8.13;;;6.20;80.20;;;;;;5024661;28;20385;-82
2021/11/19 08:35:09;;;;;;;8.30;7.90;;;6.40;80.10;;;;;;5046205;28;20040;-82
2021/11/19 08:37:35;;;;;;;9.43;8.93;;;6.50;79.80;;;;;;5039659;28;20611;-83
2021/11/19 08:40:03;;;;;;;8.37;7.80;;;6.70;79.80;;;;;;5050180;28;20032;-85
2021/11/19 08:42:29;;;;;;;6.63;6.33;;;6.70;79.50;;;;;;5025399;28;20364;-85
2021/11/19 08:44:55;;;;;;;7.23;6.93;;;6.80;79.50;;;;;;5044108;28;20047;-86
2021/11/19 08:47:21;;;;;;;7.30;7.00;;;6.90;79.50;;;;;;5027826;28;20521;-84
2021/11/19 08:49:48;;;;;;;8.73;8.23;;;7.00;79.50;;;;;;5036777;28;20044;-84
2021/11/19 08:52:15;;;;;;;8.60;8.10;;;7.00;79.30;;;;;;5042055;28;20568;-84
2021/11/19 08:54:42;;;;;;;7.40;7.00;;;7.10;79.40;;;;;;5047389;28;20051;-79
2021/11/19 08:57:12;;;;;;;7.20;6.90;;;7.20;79.10;;;;;;5036708;28;20036;-79
2021/11/19 08:59:40;;;;;;;7.45;6.95;;;7.10;79.00;;;;;;5043430;28;20036;-79
2021/11/19 09:02:07;;;;;;;7.50;7.10;;;7.00;79.00;;;;;;5047520;28;20025;-79
2021/11/19 09:04:34;;;;;;;6.57;6.27;;;7.00;79.20;;;;;;5049623;28;20032;-79
2021/11/19 09:07:00;;;;;;;6.93;6.60;;;6.80;79.30;;;;;;5048514;28;20409;-78
2021/11/19 09:09:26;;;;;;;6.73;6.43;;;6.70;79.50;;;;;;5059209;28;20146;-79
2021/11/19 09:11:53;;;;;;;6.80;6.50;;;6.60;79.70;;;;;;5031942;28;20037;-79
2021/11/19 09:14:19;;;;;;;7.87;7.27;;;6.50;79.90;;;;;;5029041;28;20036;-79
2021/11/19 09:17:02;;;;;;;6.73;6.43;;;6.40;80.10;;;;;;5043844;28;20042;-78
2021/11/19 09:19:56;;;;;;;7.83;7.20;;;6.40;80.20;;;;;;5035964;28;20032;-79
2021/11/19 09:22:41;;;;;;;6.70;6.40;;;6.40;80.10;;;;;;5046930;28;20382;-79
2021/11/19 09:25:10;;;;;;;6.87;6.57;;;6.40;80.10;;;;;;5050859;28;20028;-79
2021/11/19 09:27:36;;;;;;;7.67;7.27;;;6.40;80.20;;;;;;5030949;28;20029;-79
2021/11/19 09:30:14;;;;;;;8.50;7.70;;;6.40;80.30;;;;;;5050694;28;20037;-78
2021/11/19 09:32:41;;;;;;;8.10;7.40;;;6.40;80.30;;;;;;5047201;28;20519;-81
2021/11/19 09:35:07;;;;;;;7.57;7.17;;;6.30;80.30;;;;;;5042278;28;20108;-79
2021/11/19 09:37:33;;;;;;;8.53;8.13;;;6.30;80.40;;;;;;5053156;28;20032;-82
2021/11/19 09:39:59;;;;;;;7.63;7.30;;;6.30;80.80;;;;;;5051990;28;20032;-78
2021/11/19 09:42:29;;;;;;;7.80;7.40;;;6.30;80.50;;;;;;5053886;28;20032;-79
2021/11/19 09:45:04;;;;;;;8.33;7.93;;;6.40;80.50;;;;;;5033155;28;20430;-79
2021/11/19 09:47:52;;;;;;;12.37;7.80;;;6.40;80.40;;;;;;5050153;28;20037;-77
2021/11/19 09:50:47;;;;;;;7.77;7.37;;;6.40;80.30;;;;;;5055097;28;20502;-79
2021/11/19 09:53:35;;;;;;;8.10;7.70;;;6.50;80.30;;;;;;5052094;28;20033;-79
2021/11/19 09:56:37;;;;;;;7.77;7.37;;;6.50;80.20;;;;;;5052414;28;20045;-82
2021/11/19 09:59:03;;;;;;;8.80;8.30;;;6.60;80.20;;;;;;5044024;28;20048;-80
2021/11/19 10:02:08;;;;;;;8.43;7.87;;;6.60;80.10;;;;;;5049273;28;20093;-80
2021/11/19 10:05:12;;;;;;;8.40;7.90;;;6.70;80.10;;;;;;5043869;28;20390;-81
2021/11/19 10:07:45;;;;;;;8.17;7.77;;;6.70;80.00;;;;;;4999168;28;20391;-78
2021/11/19 10:10:36;;;;;;;8.33;7.93;;;6.80;80.00;;;;;;4993515;28;20052;-78
2021/11/19 10:13:21;;;;;;;8.03;7.60;;;6.80;80.00;;;;;;4994059;28;20029;-79
2021/11/19 10:16:02;;;;;;;8.50;8.10;;;6.80;80.10;;;;;;5010796;28;20052;-79
2021/11/19 10:18:39;;;;;;;9.90;9.02;;;6.80;80.10;;;;;;5012181;28;20030;-78
2021/11/19 10:21:08;;;;;;;8.87;8.37;;;6.80;80.10;;;;;;5010741;28;20057;-78
2021/11/19 10:23:42;;;;;;;8.97;8.47;;;6.80;80.10;;;;;;4994730;28;20030;-78
2021/11/19 10:26:28;;;;;;;7.97;7.57;;;6.90;80.20;;;;;;4994635;28;20034;-78
2021/11/19 10:29:06;;;;;;;8.80;8.30;;;6.90;80.30;;;;;;4997842;28;20034;-79
2021/11/19 10:31:32;;;;;;;8.37;7.83;;;6.90;80.30;;;;;;4993912;28;20053;-84
2021/11/19 10:34:22;;;;;;;13.17;9.67;;;7.00;80.30;;;;;;4994081;28;20050;-78
2021/11/19 10:37:21;;;;;;;8.67;8.17;;;7.00;80.40;;;;;;5008398;28;20514;-78
2021/11/19 10:40:01;;;;;;;8.90;8.33;;;7.10;80.20;;;;;;5008852;28;20041;-78
2021/11/19 10:42:48;;;;;;;8.83;8.27;;;7.20;80.00;;;;;;5046706;28;20497;-78
2021/11/19 10:45:33;;;;;;;8.63;7.93;;;7.20;80.00;;;;;;5052786;28;20029;-78
2021/11/19 10:48:10;;;;;;;8.60;8.20;;;7.20;80.10;;;;;;5052240;28;20029;-78
2021/11/19 10:51:14;;;;;;;8.77;8.00;;;7.20;80.10;;;;;;5052020;28;20371;-79
2021/11/19 10:53:54;;;;;;;8.00;7.60;;;7.20;80.00;;;;;;5051801;28;20497;-79
2021/11/19 10:56:42;;;;;;;7.83;7.43;;;7.20;80.10;;;;;;5051829;28;20393;-78
2021/11/19 10:59:20;;;;;;;8.83;8.33;;;7.20;80.20;;;;;;5032122;28;20044;-78
2021/11/19 11:01:56;;;;;;;8.80;8.00;;;7.30;80.30;;;;;;5042311;28;20028;-78
2021/11/19 11:04:30;;;;;;;8.63;8.23;;;7.30;80.20;;;;;;5051980;28;20035;-78
2021/11/19 11:07:17;;;;;;;9.10;8.60;;;7.40;80.10;;;;;;5050429;28;20374;-78
2021/11/19 11:09:51;;;;;;;8.40;8.00;;;7.40;80.10;;;;;;5049724;28;20029;-78
2021/11/19 11:12:23;;;;;;;8.37;7.87;;;7.40;80.20;;;;;;5051952;28;20101;-78
2021/11/19 11:15:37;;;;;;;8.80;8.37;;;7.50;80.20;;;;;;5051789;28;20029;-78
2021/11/19 11:18:09;;;;;;;8.27;7.87;;;7.50;80.20;;;;;;5031686;28;20042;-78
2021/11/19 11:20:53;;;;;;;9.93;9.40;;;7.60;80.10;;;;;;5032460;28;20498;-78
2021/11/19 11:23:25;;;;;;;8.13;7.73;;;7.60;80.10;;;;;;5033916;28;20359;-78
2021/11/19 11:26:19;;;;;;;9.33;8.63;;;7.70;80.00;;;;;;5026035;28;20105;-78
2021/11/19 11:28:58;;;;;;;8.50;8.00;;;7.80;80.00;;;;;;5011460;28;20407;-78
2021/11/19 11:31:42;;;;;;;9.23;8.63;;;7.80;79.90;;;;;;5028454;28;20042;-78
2021/11/19 11:34:26;;;;;;;9.80;9.13;;;7.80;79.90;;;;;;5028362;28;20052;-78
2021/11/19 11:37:11;;;;;;;10.23;9.63;;;7.90;79.90;;;;;;5011262;28;20540;-78
2021/11/19 11:39:42;;;;;;;8.50;8.10;;;7.90;79.80;;;;;;5042170;28;20044;-78
2021/11/19 11:42:23;;;;;;;8.97;8.47;;;7.90;79.80;;;;;;5033052;28;20030;-78
2021/11/19 11:44:51;;;;;;;10.17;9.47;;;7.90;79.90;;;;;;5032042;28;20041;-78
2021/11/19 11:47:30;;;;;;;9.17;8.77;;;8.00;79.90;;;;;;5027889;28;20048;-79
2021/11/19 11:49:59;;;;;;;8.27;7.87;;;8.00;79.90;;;;;;5041176;28;20048;-78
2021/11/19 11:52:43;;;;;;;8.27;7.87;;;8.00;79.90;;;;;;5051754;28;20048;-78
2021/11/19 11:55:23;;;;;;;8.80;8.40;;;8.00;79.90;;;;;;5034029;28;20025;-78
2021/11/19 11:57:52;;;;;;;8.70;8.10;;;8.10;80.00;;;;;;5049280;28;20029;-79
2021/11/19 12:00:54;;;;;;;9.67;9.17;;;8.10;79.80;;;;;;5051433;28;20032;-79
2021/11/19 12:03:45;;;;;;;8.23;7.82;;;8.20;79.80;;;;;;5051468;28;20037;-78
2021/11/19 12:06:22;;;;;;;8.00;7.60;;;8.20;79.60;;;;;;5048873;28;20032;-78
2021/11/19 12:09:04;;;;;;;8.90;8.30;;;8.40;79.70;;;;;;5049745;28;20385;-78
2021/11/19 12:12:01;;;;;;;9.07;8.68;;;8.40;79.60;;;;;;5047667;28;20036;-78
2021/11/19 12:15:09;;;;;;;8.30;7.90;;;8.50;79.60;;;;;;5031402;28;20041;-78
2021/11/19 12:18:04;;;;;;;12.77;8.75;;;8.60;79.60;;;;;;5014267;28;20058;-78
2021/11/19 12:21:13;;;;;;;19.75;8.85;;;8.60;79.40;;;;;;5010850;28;20041;-78
2021/11/19 12:23:53;;;;;;;8.70;8.20;;;8.70;79.40;;;;;;4996906;28;20049;-78
2021/11/19 12:26:39;;;;;;;10.63;9.93;;;8.90;79.30;;;;;;4994643;28;20035;-78
2021/11/19 12:29:16;;;;;;;9.23;8.73;;;9.00;79.10;;;;;;4988120;28;20041;-79
2021/11/19 12:31:53;;;;;;;9.70;9.18;;;9.10;78.90;;;;;;4996793;28;20038;-79
2021/11/19 12:34:27;;;;;;;8.45;8.05;;;9.20;78.80;;;;;;4994293;28;20034;-79
2021/11/19 12:37:02;;;;;;;8.15;7.75;;;9.30;78.70;;;;;;4993794;28;20058;-79
2021/11/19 12:39:30;;;;;;;8.77;8.32;;;9.30;78.70;;;;;;4977956;28;20033;-78
2021/11/19 12:42:01;;;;;;;9.35;8.75;;;9.50;78.70;;;;;;5001648;28;20402;-79
2021/11/19 12:44:45;;;;;;;8.75;8.35;;;9.50;78.50;;;;;;5004721;28;20033;-79
2021/11/19 12:47:40;;;;;;;7.97;7.57;;;9.60;78.30;;;;;;5020435;28;20133;-78
2021/11/19 12:50:11;;;;;;;8.90;8.43;;;9.70;78.40;;;;;;5017631;28;20560;-78
2021/11/19 12:52:42;;;;;;;8.98;8.48;;;9.70;78.40;;;;;;5004292;28;20033;-79
2021/11/19 12:55:41;;;;;;;10.23;9.48;;;9.80;78.30;;;;;;5047940;28;20044;-79
2021/11/19 12:58:20;;;;;;;9.15;8.45;;;9.80;78.30;;;;;;5049841;28;20371;-78
2021/11/19 13:01:20;;;;;;;8.13;7.72;;;9.70;78.40;;;;;;5059846;28;20040;-79
2021/11/19 13:04:12;;;;;;;9.57;9.07;;;9.70;78.60;;;;;;5047875;28;20092;-79
2021/11/19 13:06:43;;;;;;;8.38;7.75;;;9.80;78.60;;;;;;5046581;28;20033;-78
2021/11/19 13:09:12;;;;;;;9.20;8.70;;;9.80;78.50;;;;;;5049073;28;20025;-78
2021/11/19 13:11:56;;;;;;;8.00;7.60;;;9.90;78.40;;;;;;5049773;28;20036;-79
2021/11/19 13:14:30;;;;;;;9.43;8.82;;;9.90;78.40;;;;;;5049303;28;20503;-79
2021/11/19 13:17:02;;;;;;;8.43;8.02;;;10.00;78.40;;;;;;5049128;28;20132;-78
2021/11/19 13:19:37;;;;;;;8.45;8.05;;;10.00;78.30;;;;;;5049482;28;20025;-79
2021/11/19 13:22:07;;;;;;;8.65;8.15;;;10.00;78.30;;;;;;5049988;28;20029;-78